CST,Max TemperatureF,Mean TemperatureF,Min TemperatureF,Max Dew PointF,MeanDew PointF,Min DewpointF,Max Humidity, Mean Humidity, Min Humidity, Max Sea Level PressureIn, Mean Sea Level PressureIn, Min Sea Level PressureIn, Max VisibilityMiles, Mean VisibilityMiles, Min VisibilityMiles, Max Wind SpeedMPH, Mean Wind SpeedMPH, Max Gust SpeedMPH,PrecipitationIn, CloudCover, Events, WindDirDegrees
2011-11-1,57,47,37,38,34,32,85,64,43,30.05,29.99,29.89,10,10,9,15,6,21,T,5,,197
2011-11-2,45,40,35,40,37,31,93,82,70,30.21,30.11,30.01,10,10,8,7,3,12,0.09,6,Rain,345
2011-11-3,48,35,22,31,26,20,100,69,38,30.30,30.25,30.18,10,9,2,10,1,15,0.00,0,,324
2011-11-4,51,34,17,30,21,16,92,59,26,30.38,30.30,30.22,10,9,0,13,4,17,0.00,0,Fog,166
2011-11-5,53,43,32,36,32,25,89,70,50,30.22,30.09,29.95,10,10,10,18,11,25,0.00,0,,164
2011-11-6,53,47,41,43,38,27,83,68,53,29.96,29.82,29.71,10,10,8,23,14,36,0.00,5,,192
2011-11-7,51,42,33,24,23,21,64,48,32,30.25,30.09,29.98,10,10,10,23,11,33,0.00,0,,240
2011-11-8,42,36,30,29,27,24,75,66,57,30.23,30.20,30.15,10,10,10,9,3,13,0.00,4,,38
2011-11-9,34,33,31,31,30,25,100,91,82,30.13,29.87,29.74,10,4,0,18,9,30,0.23,8,Fog-Snow,335
2011-11-10,34,31,28,30,27,21,89,79,69,29.97,29.86,29.76,10,6,1,18,9,23,0.05,8,Snow,287
2011-11-11,36,28,20,27,22,18,84,74,64,29.94,29.76,29.63,10,10,8,17,9,24,0.00,4,,223
2011-11-12,55,40,25,35,29,26,92,64,35,29.66,29.57,29.35,10,10,7,14,6,21,0.00,1,,186
2011-11-13,46,42,37,39,35,30,85,78,70,29.47,29.30,29.23,10,10,10,20,10,29,T,5,Rain,215
2011-11-14,48,39,30,35,30,24,85,71,56,29.61,29.51,29.44,10,10,9,20,9,25,T,1,,218
2011-11-15,49,39,28,34,28,18,79,64,49,29.75,29.64,29.57,10,10,10,28,10,35,T,3,,221
2011-11-16,35,28,21,19,16,9,81,58,35,30.03,29.93,29.77,10,8,0,25,14,35,0.01,7,Fog-Snow,269
2011-11-17,28,22,16,16,13,9,77,66,55,30.11,30.06,29.96,10,10,7,17,9,22,T,6,Snow,257
2011-11-18,42,31,20,25,21,11,78,65,51,30.05,29.80,29.72,10,10,10,17,7,23,0.00,4,,184
2011-11-19,35,31,26,32,29,23,100,88,75,30.01,29.79,29.69,10,5,0,14,5,21,0.35,7,Fog-Rain-Snow,15
2011-11-20,27,24,21,25,19,16,92,80,68,30.38,30.26,29.98,10,10,10,14,3,21,T,8,,334
2011-11-21,30,26,22,26,23,19,96,87,78,30.37,30.31,30.23,10,8,1,10,4,15,0.00,7,,185
2011-11-22,33,28,22,30,25,21,100,91,82,30.32,30.13,30.01,10,5,0,9,2,12,0.00,5,Fog,123
2011-11-23,36,32,28,35,31,27,100,95,89,30.15,30.09,30.04,6,3,0,14,9,20,0.00,8,Fog,235
2011-11-24,49,42,35,40,37,34,100,83,66,30.07,29.94,29.79,10,5,2,16,11,23,0.00,5,,211
2011-11-25,48,45,42,43,41,38,100,88,76,29.82,29.77,29.72,10,8,2,13,6,21,0.02,5,Rain,181
2011-11-26,46,40,33,45,41,29,100,95,89,29.88,29.76,29.67,10,5,0,13,5,21,0.29,8,Fog-Rain,289
2011-11-27,33,30,26,28,23,21,85,80,75,30.19,30.03,29.87,10,8,1,18,8,30,T,8,Snow,331
2011-11-28,32,28,23,26,22,20,88,80,72,30.19,30.12,30.02,10,10,10,14,6,18,0.00,4,,234
2011-11-29,33,22,11,27,18,9,92,71,49,30.26,30.19,30.09,10,10,10,14,7,23,0.00,0,,351
2011-11-30,39,26,13,30,21,11,92,65,37,30.09,30.01,29.93,10,7,2,14,4,17,0.02,5,Snow,237